createdAt,value
2023-07-02T00:00:07.396Z,72.03
2023-07-02T00:02:34.576Z,72.36
2023-07-02T00:05:01.460Z,72.44
2023-07-02T00:07:29.501Z,72.95
2023-07-02T00:09:56.484Z,72.33
2023-07-02T00:12:23.398Z,72.54
2023-07-02T00:14:53.920Z,72.27
2023-07-02T00:17:21.709Z,72.43
2023-07-02T00:19:52.813Z,71.60
2023-07-02T00:22:20.336Z,72.49
2023-07-02T00:24:47.384Z,72.08
2023-07-02T00:27:14.395Z,73.07
2023-07-02T00:29:41.357Z,72.81
2023-07-02T00:32:08.269Z,71.86
2023-07-02T00:34:35.222Z,71.72
2023-07-02T00:37:02.075Z,71.49
2023-07-02T00:39:29.051Z,71.80
2023-07-02T00:42:03.832Z,71.48
2023-07-02T00:44:30.836Z,71.73
2023-07-02T00:46:58.058Z,71.60
2023-07-02T00:49:25.530Z,72.56
2023-07-02T00:51:52.662Z,71.70
2023-07-02T00:54:19.536Z,71.36
2023-07-02T00:56:47.156Z,71.16
2023-07-02T00:59:14.279Z,70.63
2023-07-02T01:01:41.311Z,70.77
2023-07-02T01:04:13.439Z,70.69
2023-07-02T01:06:43.381Z,71.30
2023-07-02T01:09:11.256Z,70.60
2023-07-02T01:11:45.215Z,70.54
2023-07-02T01:14:35.073Z,70.44
2023-07-02T01:17:07.015Z,70.51
2023-07-02T01:19:52.596Z,70.51
2023-07-02T01:22:22.401Z,70.51
2023-07-02T01:24:50.507Z,70.15
2023-07-02T01:27:17.751Z,69.77
2023-07-02T01:29:47.775Z,70.17
2023-07-02T01:32:17.751Z,69.94
2023-07-02T01:34:50.480Z,70.16
2023-07-02T01:37:20.664Z,70.36
2023-07-02T01:39:48.234Z,70.39
2023-07-02T01:42:18.189Z,70.29
2023-07-02T01:44:50.500Z,70.38
2023-07-02T01:47:17.803Z,70.23
2023-07-02T01:49:44.908Z,70.56
2023-07-02T01:52:11.849Z,70.62
2023-07-02T01:54:38.826Z,70.68
2023-07-02T01:57:06.177Z,70.20
2023-07-02T01:59:33.133Z,70.46
2023-07-02T02:02:00.068Z,71.79
2023-07-02T02:04:27.182Z,70.69
2023-07-02T02:06:54.523Z,71.15
2023-07-02T02:09:21.606Z,70.90
2023-07-02T02:11:53.483Z,71.59
2023-07-02T02:14:20.732Z,70.93
2023-07-02T02:16:47.767Z,70.58
2023-07-02T02:19:15.980Z,70.57
2023-07-02T02:21:44.069Z,70.96
2023-07-02T02:24:11.380Z,70.32
2023-07-02T02:26:38.316Z,70.15
2023-07-02T02:29:05.447Z,70.34
2023-07-02T02:31:32.460Z,69.74
2023-07-02T02:33:59.454Z,70.39
2023-07-02T02:36:26.941Z,70.47
2023-07-02T02:38:53.847Z,71.37
2023-07-02T02:41:20.724Z,70.53
2023-07-02T02:43:47.600Z,70.29
2023-07-02T02:46:25.229Z,71.55
2023-07-02T02:48:52.861Z,71.73
2023-07-02T02:51:19.822Z,69.89
2023-07-02T02:53:47.418Z,70.64
2023-07-02T02:56:14.533Z,69.37
2023-07-02T02:58:41.698Z,69.72
2023-07-02T03:01:11.997Z,69.55
2023-07-02T03:03:46.401Z,70.25
2023-07-02T03:06:15.853Z,70.83
2023-07-02T03:08:42.911Z,71.16
2023-07-02T03:11:09.910Z,71.32
2023-07-02T03:13:36.849Z,71.26
2023-07-02T03:16:03.967Z,71.16
2023-07-02T03:18:30.923Z,71.09
2023-07-02T03:20:57.849Z,71.90
2023-07-02T03:23:24.881Z,72.12
2023-07-02T03:25:51.743Z,72.05
2023-07-02T03:28:18.726Z,71.96
2023-07-02T03:30:45.898Z,71.34
2023-07-02T03:33:12.922Z,71.83
2023-07-02T03:35:39.818Z,71.53
2023-07-02T03:38:07.381Z,71.28
2023-07-02T03:40:34.348Z,71.54
2023-07-02T03:43:01.226Z,71.29
2023-07-02T03:45:28.210Z,69.79
2023-07-02T03:47:55.486Z,69.25
2023-07-02T03:50:22.566Z,69.34
2023-07-02T03:52:49.449Z,69.90
2023-07-02T03:55:16.512Z,70.42
2023-07-02T03:57:43.421Z,70.17
2023-07-02T04:00:12.316Z,70.11
2023-07-02T04:02:39.288Z,69.78
2023-07-02T04:05:07.244Z,69.18
2023-07-02T04:07:34.300Z,68.92
2023-07-02T04:10:01.200Z,69.33
2023-07-02T04:12:28.990Z,69.34
2023-07-02T04:14:55.905Z,69.48
2023-07-02T04:17:23.000Z,68.34
2023-07-02T04:19:50.168Z,68.72
2023-07-02T04:22:17.220Z,69.08
2023-07-02T04:24:46.769Z,68.42
2023-07-02T04:27:46.885Z,68.21
2023-07-02T04:30:01.874Z,68.20
2023-07-02T04:32:28.765Z,68.92
2023-07-02T04:34:55.671Z,68.37
2023-07-02T04:37:23.172Z,68.47
2023-07-02T04:39:50.150Z,68.28
2023-07-02T04:42:17.049Z,69.24
2023-07-02T04:44:44.648Z,69.11
2023-07-02T04:47:12.195Z,69.23
2023-07-02T04:49:39.973Z,69.61
2023-07-02T04:52:07.301Z,69.86
2023-07-02T04:54:34.188Z,69.51
2023-07-02T04:57:01.139Z,69.48
2023-07-02T04:59:28.107Z,68.89
2023-07-02T05:01:55.023Z,68.28
2023-07-02T05:04:22.245Z,67.78
2023-07-02T05:06:49.208Z,67.75
2023-07-02T05:09:16.294Z,67.31
2023-07-02T05:11:43.169Z,67.91
2023-07-02T05:14:10.082Z,67.19
2023-07-02T05:16:37.003Z,66.46
2023-07-02T05:19:03.904Z,66.58
2023-07-02T05:21:30.766Z,68.60
2023-07-02T05:23:57.698Z,68.07
2023-07-02T05:26:24.630Z,67.78
2023-07-02T05:28:51.572Z,69.13
2023-07-02T05:31:18.549Z,69.79
2023-07-02T05:33:45.527Z,69.79
2023-07-02T05:36:12.425Z,69.13
2023-07-02T05:38:39.261Z,69.80
2023-07-02T05:41:06.235Z,70.12
2023-07-02T05:43:33.101Z,69.27
2023-07-02T05:46:03.687Z,66.79
2023-07-02T05:48:30.633Z,66.47
2023-07-02T05:50:57.569Z,65.16
2023-07-02T05:53:24.470Z,64.50
2023-07-02T05:55:51.361Z,64.48
2023-07-02T05:58:18.228Z,64.79
2023-07-02T06:00:50.728Z,64.84
2023-07-02T06:03:21.668Z,64.67
2023-07-02T06:05:52.901Z,64.34
2023-07-02T06:08:20.029Z,64.91
2023-07-02T06:10:49.296Z,64.28
2023-07-02T06:13:16.688Z,64.24
2023-07-02T06:15:44.186Z,65.08
2023-07-02T06:18:11.272Z,65.02
2023-07-02T06:20:38.648Z,65.45
2023-07-02T06:23:05.599Z,66.81
2023-07-02T06:25:32.871Z,68.16
2023-07-02T06:28:00.891Z,67.96
2023-07-02T06:30:27.982Z,67.53
2023-07-02T06:32:55.494Z,68.14
2023-07-02T06:35:22.660Z,68.41
2023-07-02T06:37:49.596Z,68.35
2023-07-02T06:40:16.547Z,69.29
2023-07-02T06:42:43.446Z,69.80
2023-07-02T06:45:10.736Z,68.68
2023-07-02T06:47:38.836Z,69.40
2023-07-02T06:50:06.318Z,68.52
2023-07-02T06:52:33.176Z,66.37
2023-07-02T06:55:00.058Z,66.60
2023-07-02T06:57:27.010Z,65.84
2023-07-02T06:59:53.935Z,64.43
2023-07-02T07:02:20.962Z,65.15
2023-07-02T07:04:47.919Z,65.33
2023-07-02T07:07:15.445Z,64.40
2023-07-02T07:09:42.353Z,63.19
2023-07-02T07:12:09.395Z,64.06
2023-07-02T07:14:36.392Z,65.58
2023-07-02T07:17:03.955Z,64.18
2023-07-02T07:19:30.887Z,64.55
2023-07-02T07:21:58.804Z,65.20
2023-07-02T07:24:25.701Z,65.02
2023-07-02T07:26:52.611Z,66.02
2023-07-02T07:29:19.578Z,66.36
2023-07-02T07:31:47.546Z,66.91
2023-07-02T07:34:14.577Z,67.15
2023-07-02T07:36:41.489Z,68.19
2023-07-02T07:39:08.467Z,68.02
2023-07-02T07:41:35.442Z,67.24
2023-07-02T07:44:02.658Z,66.89
2023-07-02T07:46:29.636Z,68.48
2023-07-02T07:48:56.647Z,68.92
2023-07-02T07:51:23.600Z,69.60
2023-07-02T07:53:50.549Z,69.76
2023-07-02T07:56:17.422Z,69.28
2023-07-02T07:58:44.302Z,68.57
2023-07-02T08:01:11.510Z,68.34
2023-07-02T08:03:39.838Z,68.05
2023-07-02T08:06:07.180Z,68.27
2023-07-02T08:08:34.089Z,67.13
2023-07-02T08:11:01.029Z,67.58
2023-07-02T08:13:27.950Z,69.59
2023-07-02T08:15:54.934Z,68.95
2023-07-02T08:18:21.831Z,69.03
2023-07-02T08:20:49.179Z,68.92
2023-07-02T08:23:16.274Z,69.33
2023-07-02T08:25:43.315Z,68.02
2023-07-02T08:28:10.237Z,68.55
2023-07-02T08:30:37.283Z,69.22
2023-07-02T08:33:04.226Z,69.05
2023-07-02T08:35:31.544Z,68.33
2023-07-02T08:37:58.464Z,67.00
2023-07-02T08:40:25.479Z,67.38
2023-07-02T08:42:52.429Z,66.93
2023-07-02T08:45:20.911Z,66.18
2023-07-02T08:47:48.011Z,64.74
2023-07-02T08:50:15.342Z,64.19
2023-07-02T08:52:44.034Z,64.68
2023-07-02T08:55:10.957Z,63.47
2023-07-02T08:57:37.856Z,62.10
2023-07-02T09:00:13.256Z,62.41
2023-07-02T09:02:40.198Z,60.97
2023-07-02T09:05:07.830Z,61.80
2023-07-02T09:07:51.858Z,60.18
2023-07-02T09:10:31.372Z,58.05
2023-07-02T09:13:10.041Z,57.37
2023-07-02T09:15:41.750Z,58.88
2023-07-02T09:18:19.025Z,57.29
2023-07-02T09:20:46.303Z,58.34
2023-07-02T09:23:13.574Z,56.12
2023-07-02T09:25:41.911Z,56.29
2023-07-02T09:28:35.248Z,56.24
2023-07-02T09:31:02.168Z,55.90
2023-07-02T09:33:30.070Z,57.16
2023-07-02T09:35:57.228Z,54.86
2023-07-02T09:38:24.591Z,56.95
2023-07-02T09:40:53.691Z,55.80
2023-07-02T09:43:22.360Z,57.14
2023-07-02T09:45:51.688Z,57.01
2023-07-02T09:48:21.414Z,56.59
2023-07-02T09:50:53.116Z,58.15
2023-07-02T09:53:20.108Z,56.00
2023-07-02T09:55:46.971Z,57.17
2023-07-02T09:58:14.033Z,57.70
2023-07-02T10:00:41.840Z,56.67
2023-07-02T10:03:08.918Z,56.00
2023-07-02T10:05:36.062Z,55.28
2023-07-02T10:08:19.138Z,56.11
2023-07-02T10:10:46.348Z,57.18
2023-07-02T10:13:13.396Z,56.81
2023-07-02T10:15:41.221Z,56.76
2023-07-02T10:18:08.428Z,57.09
2023-07-02T10:20:41.600Z,59.03
2023-07-02T10:23:10.497Z,57.52
2023-07-02T10:25:40.135Z,56.00
2023-07-02T10:28:20.652Z,55.49
2023-07-02T10:30:48.015Z,54.49
2023-07-02T10:33:19.602Z,55.44
2023-07-02T10:35:50.701Z,54.07
2023-07-02T10:38:26.081Z,51.86
2023-07-02T10:41:04.279Z,52.60
2023-07-02T10:43:33.348Z,50.33
2023-07-02T10:46:02.054Z,52.98
2023-07-02T10:48:29.894Z,51.98
2023-07-02T10:50:56.965Z,53.08
2023-07-02T10:53:25.128Z,52.52
2023-07-02T10:55:57.443Z,50.85
2023-07-02T10:58:25.580Z,51.79
2023-07-02T11:00:53.442Z,52.21
2023-07-02T11:03:22.101Z,50.04
2023-07-02T11:05:50.818Z,48.92
2023-07-02T11:08:18.814Z,47.66
2023-07-02T11:10:45.811Z,48.19
2023-07-02T11:13:20.261Z,48.55
2023-07-02T11:15:47.960Z,50.62
2023-07-02T11:18:18.313Z,51.56
2023-07-02T11:20:47.166Z,50.48
2023-07-02T11:23:26.239Z,52.71
2023-07-02T11:26:04.082Z,51.08
2023-07-02T11:28:33.251Z,51.24
2023-07-02T11:31:00.614Z,51.65
2023-07-02T11:33:42.976Z,52.20
2023-07-02T11:36:25.541Z,50.78
2023-07-02T11:38:53.304Z,50.88
2023-07-02T11:41:22.148Z,50.00
2023-07-02T11:43:49.303Z,48.85
2023-07-02T11:46:17.356Z,48.96
2023-07-02T11:48:44.461Z,49.72
2023-07-02T11:51:11.605Z,49.11
2023-07-02T11:53:38.535Z,49.28
2023-07-02T11:56:05.498Z,48.27
2023-07-02T11:58:32.446Z,46.88
2023-07-02T12:00:59.317Z,46.57
2023-07-02T12:03:26.373Z,45.88
2023-07-02T12:05:53.434Z,43.26
2023-07-02T12:08:20.387Z,42.92
2023-07-02T12:10:47.328Z,41.99
2023-07-02T12:13:14.289Z,41.29
2023-07-02T12:15:41.250Z,42.00
2023-07-02T12:18:09.144Z,41.32
2023-07-02T12:20:36.178Z,41.64
2023-07-02T12:23:03.060Z,41.75
2023-07-02T12:25:29.992Z,42.11
2023-07-02T12:27:56.948Z,39.45
2023-07-02T12:30:23.937Z,40.35
2023-07-02T12:32:50.855Z,39.22
2023-07-02T12:35:17.837Z,40.28
2023-07-02T12:37:53.702Z,38.91
2023-07-02T12:40:21.732Z,40.00
2023-07-02T12:42:50.693Z,39.58
2023-07-02T12:45:21.148Z,38.25
2023-07-02T12:47:49.233Z,39.94
2023-07-02T12:50:16.424Z,39.29
2023-07-02T12:52:43.424Z,41.12
2023-07-02T12:55:10.429Z,39.30
2023-07-02T12:57:37.382Z,39.32
2023-07-02T13:00:07.459Z,37.58
2023-07-02T13:02:39.295Z,37.88
2023-07-02T13:05:15.057Z,38.56
2023-07-02T13:07:42.196Z,38.86
2023-07-02T13:10:09.234Z,39.39
2023-07-02T13:12:36.160Z,36.82
2023-07-02T13:15:03.135Z,37.01
2023-07-02T13:17:30.076Z,37.18
2023-07-02T13:19:57.404Z,36.74
2023-07-02T13:22:24.302Z,37.01
2023-07-02T13:24:51.160Z,36.84
2023-07-02T13:27:20.199Z,37.15
2023-07-02T13:29:47.196Z,37.43
2023-07-02T13:32:14.149Z,37.65
2023-07-02T13:34:41.079Z,37.77
2023-07-02T13:37:09.761Z,37.78
2023-07-02T13:39:36.711Z,37.39
2023-07-02T13:42:03.825Z,38.45
2023-07-02T13:44:30.750Z,37.82
2023-07-02T13:46:57.712Z,37.57
2023-07-02T13:49:24.636Z,39.09
2023-07-02T13:51:51.854Z,38.53
2023-07-02T13:54:19.830Z,38.46
2023-07-02T13:56:50.446Z,38.63
2023-07-02T13:59:18.928Z,37.98
2023-07-02T14:01:47.263Z,37.26
2023-07-02T14:04:15.778Z,38.21
2023-07-02T14:06:42.788Z,37.09
2023-07-02T14:09:10.584Z,37.18
2023-07-02T14:11:41.652Z,36.86
2023-07-02T14:14:09.177Z,38.35
2023-07-02T14:16:36.255Z,37.42
2023-07-02T14:19:03.299Z,39.04
2023-07-02T14:21:30.268Z,38.40
2023-07-02T14:23:57.916Z,37.72
2023-07-02T14:26:24.807Z,36.63
2023-07-02T14:28:51.742Z,37.36
2023-07-02T14:31:18.680Z,36.56
2023-07-02T14:33:45.693Z,35.50
2023-07-02T14:36:12.612Z,34.67
2023-07-02T14:38:39.596Z,34.70
2023-07-02T14:41:06.518Z,34.76
2023-07-02T14:43:33.496Z,35.61
2023-07-02T14:46:03.810Z,37.23
2023-07-02T14:48:30.963Z,37.27
2023-07-02T14:51:00.908Z,36.87
2023-07-02T14:53:29.531Z,37.42
2023-07-02T14:56:00.234Z,38.08
2023-07-02T14:58:28.865Z,37.03
2023-07-02T15:00:58.392Z,38.42
2023-07-02T15:03:27.622Z,37.43
2023-07-02T15:05:54.917Z,37.73
2023-07-02T15:08:22.719Z,38.61
2023-07-02T15:10:53.738Z,36.83
2023-07-02T15:13:24.711Z,36.18
2023-07-02T15:15:52.777Z,35.97
2023-07-02T15:18:21.413Z,34.99
2023-07-02T15:20:52.312Z,35.55
2023-07-02T15:23:19.333Z,36.08
2023-07-02T15:25:56.070Z,36.93
2023-07-02T15:28:24.378Z,36.79
2023-07-02T15:31:00.660Z,37.71
2023-07-02T15:33:28.690Z,38.32
2023-07-02T15:35:56.021Z,39.02
2023-07-02T15:38:22.930Z,39.32
2023-07-02T15:40:50.295Z,39.64
2023-07-02T15:43:17.337Z,39.66
2023-07-02T15:45:44.257Z,39.57
2023-07-02T15:48:11.187Z,40.70
2023-07-02T15:50:38.616Z,39.71
2023-07-02T15:53:05.868Z,38.97
2023-07-02T15:55:36.457Z,39.34
2023-07-02T15:58:03.737Z,40.25
2023-07-02T16:00:30.765Z,40.29
2023-07-02T16:02:57.959Z,40.63
2023-07-02T16:05:25.602Z,40.68
2023-07-02T16:07:52.781Z,40.87
2023-07-02T16:10:19.886Z,39.41
2023-07-02T16:12:46.899Z,41.17
2023-07-02T16:15:13.802Z,40.24
2023-07-02T16:17:40.798Z,41.11
2023-07-02T16:20:08.306Z,40.69
2023-07-02T16:22:35.319Z,40.42
2023-07-02T16:25:02.870Z,42.50
2023-07-02T16:27:29.798Z,41.56
2023-07-02T16:29:58.052Z,42.22
2023-07-02T16:32:27.693Z,41.40
2023-07-02T16:34:54.644Z,42.75
2023-07-02T16:37:22.177Z,42.11
2023-07-02T16:39:49.575Z,42.80
2023-07-02T16:42:16.552Z,41.38
2023-07-02T16:44:43.465Z,42.25
2023-07-02T16:47:10.378Z,41.08
2023-07-02T16:49:37.275Z,40.56
2023-07-02T16:52:04.622Z,41.07
2023-07-02T16:54:31.654Z,42.06
2023-07-02T16:57:01.256Z,43.01
2023-07-02T16:59:31.773Z,42.49
2023-07-02T17:02:00.283Z,43.28
2023-07-02T17:04:28.500Z,42.71
2023-07-02T17:06:58.802Z,43.49
2023-07-02T17:09:36.522Z,43.56
2023-07-02T17:12:07.036Z,43.69
2023-07-02T17:14:37.572Z,44.17
2023-07-02T17:17:09.319Z,44.11
2023-07-02T17:19:42.946Z,43.62
2023-07-02T17:22:17.191Z,43.50
2023-07-02T17:24:47.007Z,44.73
2023-07-02T17:27:17.742Z,44.94
2023-07-02T17:29:56.893Z,46.07
2023-07-02T17:32:24.573Z,46.43
2023-07-02T17:34:51.869Z,47.08
2023-07-02T17:37:21.232Z,46.22
2023-07-02T17:39:49.629Z,47.75
2023-07-02T17:42:18.433Z,46.68
2023-07-02T17:44:48.146Z,47.77
2023-07-02T17:47:19.394Z,46.95
2023-07-02T17:49:48.449Z,47.66
2023-07-02T17:52:18.976Z,46.33
2023-07-02T17:54:57.130Z,48.02
2023-07-02T17:57:25.063Z,46.40
2023-07-02T17:59:56.562Z,45.36
2023-07-02T18:02:27.880Z,47.14
2023-07-02T18:04:55.076Z,46.24
2023-07-02T18:07:22.173Z,47.36
2023-07-02T18:09:51.398Z,45.85
2023-07-02T18:12:24.830Z,46.50
2023-07-02T18:14:53.024Z,45.70
2023-07-02T18:17:20.806Z,46.92
2023-07-02T18:19:47.749Z,46.20
2023-07-02T18:22:14.710Z,45.26
2023-07-02T18:24:59.111Z,47.23
2023-07-02T18:27:26.117Z,46.30
2023-07-02T18:29:53.054Z,46.92
2023-07-02T18:32:20.003Z,47.62
2023-07-02T18:34:48.312Z,48.11
2023-07-02T18:37:15.469Z,49.05
2023-07-02T18:39:42.865Z,49.47
2023-07-02T18:42:11.900Z,50.86
2023-07-02T18:44:39.754Z,52.09
2023-07-02T18:47:13.394Z,52.13
2023-07-02T18:49:41.847Z,52.98
2023-07-02T18:52:16.530Z,53.18
2023-07-02T18:54:44.173Z,53.97
2023-07-02T18:57:13.039Z,54.58
2023-07-02T18:59:48.516Z,54.64
2023-07-02T19:02:16.494Z,54.69
2023-07-02T19:04:54.952Z,55.37
2023-07-02T19:07:24.033Z,55.64
2023-07-02T19:09:50.929Z,56.04
2023-07-02T19:12:17.830Z,56.04
2023-07-02T19:14:44.825Z,56.67
2023-07-02T19:17:14.882Z,57.69
2023-07-02T19:19:43.576Z,57.77
2023-07-02T19:22:13.262Z,58.05
2023-07-02T19:24:40.654Z,58.18
2023-07-02T19:27:11.121Z,58.50
2023-07-02T19:29:38.579Z,58.68
2023-07-02T19:32:06.351Z,58.75
2023-07-02T19:34:33.991Z,59.12
2023-07-02T19:37:01.147Z,59.02
2023-07-02T19:39:29.033Z,59.42
2023-07-02T19:41:56.234Z,59.47
2023-07-02T19:44:23.230Z,59.42
2023-07-02T19:46:50.194Z,59.00
2023-07-02T19:49:18.029Z,59.39
2023-07-02T19:51:52.008Z,59.73
2023-07-02T19:54:20.392Z,59.83
2023-07-02T19:56:49.616Z,59.83
2023-07-02T19:59:17.816Z,60.08
2023-07-02T20:01:45.076Z,60.03
2023-07-02T20:04:21.955Z,60.46
2023-07-02T20:06:49.803Z,60.96
2023-07-02T20:09:17.029Z,60.63
2023-07-02T20:11:44.010Z,60.56
2023-07-02T20:14:10.993Z,61.30
2023-07-02T20:16:37.935Z,61.57
2023-07-02T20:19:04.886Z,61.72
2023-07-02T20:21:31.848Z,62.24
2023-07-02T20:23:59.538Z,62.63
2023-07-02T20:26:27.210Z,62.76
2023-07-02T20:28:54.115Z,63.03
2023-07-02T20:31:21.340Z,63.58
2023-07-02T20:33:48.312Z,64.25
2023-07-02T20:36:15.784Z,64.25
2023-07-02T20:38:43.039Z,64.22
2023-07-02T20:41:11.945Z,64.03
2023-07-02T20:43:44.560Z,64.09
2023-07-02T20:46:11.904Z,64.07
2023-07-02T20:48:44.580Z,63.95
2023-07-02T20:51:11.767Z,63.88
2023-07-02T20:53:38.752Z,63.54
2023-07-02T20:56:06.310Z,63.74
2023-07-02T20:58:33.286Z,63.79
2023-07-02T21:01:08.798Z,64.43
2023-07-02T21:03:36.380Z,64.77
2023-07-02T21:06:11.981Z,64.73
2023-07-02T21:08:38.940Z,64.85
2023-07-02T21:11:16.527Z,64.89
2023-07-02T21:13:51.116Z,64.95
2023-07-02T21:16:18.216Z,65.47
2023-07-02T21:18:45.264Z,65.04
2023-07-02T21:21:12.196Z,65.15
2023-07-02T21:23:39.135Z,65.20
2023-07-02T21:26:06.281Z,65.22
2023-07-02T21:28:34.570Z,65.28
2023-07-02T21:31:01.705Z,65.42
2023-07-02T21:33:28.682Z,65.41
2023-07-02T21:36:01.031Z,65.82
2023-07-02T21:38:28.227Z,65.62
2023-07-02T21:40:55.119Z,65.83
2023-07-02T21:43:22.020Z,65.96
2023-07-02T21:45:56.746Z,66.47
2023-07-02T21:48:23.884Z,66.40
2023-07-02T21:50:51.026Z,66.56
2023-07-02T21:53:17.906Z,66.56
2023-07-02T21:55:44.760Z,66.30
2023-07-02T21:58:11.624Z,66.13
2023-07-02T22:00:38.527Z,65.68
2023-07-02T22:03:05.406Z,65.22
2023-07-02T22:05:32.284Z,65.09
2023-07-02T22:07:59.286Z,64.58
2023-07-02T22:10:31.043Z,64.59
2023-07-02T22:13:03.831Z,64.83
2023-07-02T22:15:31.042Z,64.90
2023-07-02T22:18:03.044Z,64.52
2023-07-02T22:20:34.770Z,64.98
2023-07-02T22:23:01.982Z,65.05
2023-07-02T22:25:29.056Z,65.28
2023-07-02T22:27:56.758Z,65.22
2023-07-02T22:30:24.545Z,65.30
2023-07-02T22:32:51.814Z,65.57
2023-07-02T22:35:19.347Z,65.86
2023-07-02T22:37:47.120Z,66.12
2023-07-02T22:40:17.046Z,66.76
2023-07-02T22:42:45.737Z,66.89
2023-07-02T22:45:15.313Z,66.74
2023-07-02T22:47:43.338Z,66.96
2023-07-02T22:50:13.080Z,67.49
2023-07-02T22:52:40.505Z,67.56
2023-07-02T22:55:08.075Z,67.58
2023-07-02T22:57:36.141Z,66.81
2023-07-02T23:00:13.115Z,66.52
2023-07-02T23:02:45.555Z,66.17
2023-07-02T23:05:17.458Z,66.35
2023-07-02T23:07:45.517Z,65.72
2023-07-02T23:10:14.462Z,65.27
2023-07-02T23:12:44.021Z,65.17
2023-07-02T23:15:16.200Z,64.97
2023-07-02T23:17:54.947Z,64.84
2023-07-02T23:20:23.231Z,64.70
2023-07-02T23:22:52.075Z,64.98
2023-07-02T23:25:24.613Z,65.19
2023-07-02T23:28:03.523Z,65.09
2023-07-02T23:30:39.717Z,65.50
2023-07-02T23:33:10.921Z,65.60
2023-07-02T23:35:38.920Z,65.75
2023-07-02T23:38:07.315Z,66.00
2023-07-02T23:40:35.628Z,65.82
2023-07-02T23:43:03.572Z,65.78
2023-07-02T23:45:33.504Z,66.03
2023-07-02T23:48:00.448Z,66.04
2023-07-02T23:50:27.719Z,66.00
2023-07-02T23:52:54.636Z,66.55
2023-07-02T23:55:21.604Z,66.91
2023-07-02T23:57:48.515Z,66.95
